Las Vegas Municipal Airport
KLVS : now visible

Airfield :











YOU CAN JOIN US ON...

 
LOGIN :

Register | Disclaimer

   EN    FR    IT 

 









Legend :    VFR   Marginal VFR   IFR   Intensive IFR   Very Intensive IFR
Visi :
Ceiling :
>= 8 km
>= 3000ft
5 to 8 km
1000 to 3000 ft
1500m to 5 km
500 to 1000 ft
800 to 1500m
200 to 500 ft
< 800m
< 200 ft
Symbols :   Thunderstorms  Fog  Heavy snow  Heavy precipitations  Wind > 20 kt






- Airport Elevation : 6877 ft


KLVS - Las Vegas Municipal

CURRENT METAR :
  • 061353Z AUTO 00000KT 10SM CLR M03/M04 A3033 RMK AO2 SLP265 I1000 T10281044

EXPIRED METARs :
  • 061253Z AUTO 16004KT 10SM CLR M03/M04 A3032 RMK AO2 SLP260 I1000 T10281039

TAF KLVS
Valid from the 06 at 12:00 until the 07 at 12:00 UTC


061120Z 0612/0712 VRB04KT P6SM SCT250
FM061800 19010KT P6SM BKN250
FM070200 VRB06KT P6SM SCT250



MET'MAP, your aeronautical weather chart ! - Copyright ORBIFLY December 2007 - Disclaimer

ORBIFLY MET'MAP TEAM :

Programming & Development : Alexandra Zaïnal
Concept & original design : Baudouin d'Aumeries
Assistance for programming : Marc-Olivier Méhu
Technical & hardware support : Manuel Goepfert

Contact : metmap@orbifly.com




SOURCES & CREDITS :

   NOAA       Earth
Advisory